Time;durP1;ratioP1;P1;durP2;ratioP2;P2;SDS_P1;SDS_P2;PMS_P1;PMS_P2;Temp;Humidity;BMP_temperature;BMP_pressure;BME280_temperature;BME280_humidity;BME280_pressure;Samples;Min_cycle;Max_cycle;Signal;HPM_P1;HPM_P2
2022/07/03 00:01:54;;;;;;;7.43;3.90;;;14.40;99.90;;;;;;5010383;28;20471;-61
2022/07/03 00:04:21;;;;;;;5.80;3.50;;;14.40;99.90;;;;;;5009252;28;20030;-61
2022/07/03 00:06:47;;;;;;;7.03;3.90;;;14.30;99.90;;;;;;5009697;28;20453;-61
2022/07/03 00:09:13;;;;;;;8.18;3.70;;;14.30;99.90;;;;;;5009817;28;20461;-61
2022/07/03 00:11:39;;;;;;;6.68;3.80;;;14.30;99.90;;;;;;5011770;28;20057;-61
2022/07/03 00:14:05;;;;;;;5.32;3.70;;;14.30;99.90;;;;;;5010068;28;20111;-61
2022/07/03 00:16:30;;;;;;;7.25;3.67;;;14.20;99.90;;;;;;5011290;28;20487;-61
2022/07/03 00:18:56;;;;;;;5.38;3.65;;;14.20;99.90;;;;;;5010101;28;20034;-62
2022/07/03 00:21:31;;;;;;;7.50;3.80;;;14.20;99.90;;;;;;5010105;28;20025;-61
2022/07/03 00:24:22;;;;;;;6.93;3.65;;;14.20;99.90;;;;;;5009736;28;20030;-61
2022/07/03 00:26:51;;;;;;;7.82;3.75;;;14.10;99.90;;;;;;5008173;28;20129;-62
2022/07/03 00:29:18;;;;;;;10.00;3.88;;;14.10;99.90;;;;;;5009628;28;20105;-61
2022/07/03 00:31:44;;;;;;;9.02;4.25;;;14.10;99.90;;;;;;5011273;28;20088;-61
2022/07/03 00:34:13;;;;;;;6.03;3.72;;;13.90;99.90;;;;;;5008444;28;20034;-61
2022/07/03 00:36:39;;;;;;;6.60;3.80;;;13.90;99.90;;;;;;5011089;28;20030;-61
2022/07/03 00:39:05;;;;;;;8.52;4.10;;;13.90;99.90;;;;;;5010272;28;20101;-61
2022/07/03 00:41:34;;;;;;;6.13;3.60;;;13.90;99.90;;;;;;5011093;28;20348;-61
2022/07/03 00:44:00;;;;;;;5.43;3.72;;;13.90;99.90;;;;;;5010267;28;20112;-61
2022/07/03 00:46:27;;;;;;;5.45;3.50;;;13.90;99.90;;;;;;5010370;28;20296;-62
2022/07/03 00:48:54;;;;;;;7.20;4.20;;;13.90;99.90;;;;;;5009104;28;20116;-61
2022/07/03 00:51:25;;;;;;;7.53;4.00;;;13.80;99.90;;;;;;5008395;28;20431;-61
2022/07/03 00:53:57;;;;;;;5.43;3.55;;;13.80;99.90;;;;;;5009460;28;20136;-62
2022/07/03 00:56:25;;;;;;;10.15;4.20;;;13.80;99.90;;;;;;5009115;28;20037;-61
2022/07/03 00:58:57;;;;;;;6.95;4.07;;;13.70;99.90;;;;;;5010364;28;20030;-61
2022/07/03 01:01:28;;;;;;;6.55;4.07;;;13.70;99.90;;;;;;5007825;28;20450;-61
2022/07/03 01:04:22;;;;;;;6.05;3.95;;;13.70;99.90;;;;;;5010839;28;20760;-62
2022/07/03 01:06:57;;;;;;;9.98;3.85;;;13.70;99.90;;;;;;5009049;28;20496;-61
2022/07/03 01:09:49;;;;;;;6.38;3.90;;;13.70;99.90;;;;;;5009817;28;20034;-61
2022/07/03 01:12:33;;;;;;;6.93;4.05;;;13.70;99.90;;;;;;5008722;28;20030;-61
2022/07/03 01:15:04;;;;;;;6.10;3.80;;;13.70;99.90;;;;;;5009003;28;20125;-62
2022/07/03 01:17:38;;;;;;;8.75;4.15;;;13.70;99.90;;;;;;5008413;28;20025;-61
2022/07/03 01:20:06;;;;;;;5.75;3.70;;;13.70;99.90;;;;;;5009704;28;20085;-61
2022/07/03 01:22:44;;;;;;;5.18;3.60;;;13.70;99.90;;;;;;5009770;28;20038;-61
2022/07/03 01:25:16;;;;;;;8.63;4.38;;;13.70;99.90;;;;;;5008688;28;20034;-61
2022/07/03 01:27:44;;;;;;;6.60;4.07;;;13.80;99.90;;;;;;5008944;28;20122;-61
2022/07/03 01:30:11;;;;;;;7.85;4.50;;;13.80;99.90;;;;;;5008840;28;20041;-61
2022/07/03 01:32:46;;;;;;;6.82;4.15;;;13.80;99.90;;;;;;5009272;28;20804;-62
2022/07/03 01:35:14;;;;;;;5.43;3.78;;;13.70;99.90;;;;;;5008750;28;20052;-61
2022/07/03 01:37:40;;;;;;;8.70;3.72;;;13.60;99.90;;;;;;5010025;28;20364;-61
2022/07/03 01:40:07;;;;;;;7.25;3.65;;;13.60;99.90;;;;;;5008503;28;20101;-61
2022/07/03 01:42:40;;;;;;;6.20;3.70;;;13.50;99.90;;;;;;5008621;28;20025;-61
2022/07/03 01:45:08;;;;;;;9.00;3.80;;;13.50;99.90;;;;;;5007650;28;20096;-62
2022/07/03 01:47:34;;;;;;;7.90;4.07;;;13.40;99.90;;;;;;5009385;28;20034;-62
2022/07/03 01:50:01;;;;;;;7.60;3.90;;;13.40;99.90;;;;;;5007489;28;20475;-61
2022/07/03 01:52:31;;;;;;;6.15;3.95;;;13.30;99.90;;;;;;5007112;28;20024;-62
2022/07/03 01:55:01;;;;;;;5.57;3.72;;;13.30;99.90;;;;;;5007370;28;20060;-61
2022/07/03 01:57:48;;;;;;;5.22;3.50;;;13.30;99.90;;;;;;5005272;28;20026;-61
2022/07/03 02:00:21;;;;;;;7.38;3.35;;;13.30;99.90;;;;;;5006376;28;20049;-61
2022/07/03 02:02:57;;;;;;;8.43;3.47;;;13.30;99.90;;;;;;5016261;28;20038;-61
2022/07/03 02:05:38;;;;;;;6.88;3.72;;;13.20;99.90;;;;;;5008840;28;20120;-61
2022/07/03 02:08:16;;;;;;;5.97;3.72;;;13.20;99.90;;;;;;5008653;28;20034;-61
2022/07/03 02:10:51;;;;;;;6.10;3.63;;;13.20;99.90;;;;;;5009461;28;20034;-61
2022/07/03 02:13:22;;;;;;;6.32;3.55;;;13.20;99.90;;;;;;5006864;28;20037;-61
2022/07/03 02:15:51;;;;;;;8.20;3.55;;;13.20;99.90;;;;;;5009514;28;20064;-61
2022/07/03 02:18:36;;;;;;;6.05;4.10;;;13.20;99.90;;;;;;5008245;28;20127;-61
2022/07/03 02:21:18;;;;;;;8.60;3.70;;;13.30;99.90;;;;;;5007804;28;20038;-61
2022/07/03 02:24:08;;;;;;;7.50;3.70;;;13.20;99.90;;;;;;5008384;28;20034;-62
2022/07/03 02:26:38;;;;;;;8.52;3.65;;;13.10;99.90;;;;;;5005423;28;20891;-61
2022/07/03 02:29:05;;;;;;;5.55;3.72;;;13.20;99.90;;;;;;5007458;28;20029;-61
2022/07/03 02:31:42;;;;;;;8.75;3.78;;;13.20;99.90;;;;;;5007423;28;20679;-61
2022/07/03 02:34:09;;;;;;;5.70;3.85;;;13.20;99.90;;;;;;5008400;28;20034;-61
2022/07/03 02:36:37;;;;;;;6.80;3.72;;;13.20;99.90;;;;;;5008351;28;20054;-61
2022/07/03 02:39:08;;;;;;;6.90;3.50;;;13.20;99.90;;;;;;5009265;28;20417;-61
2022/07/03 02:41:50;;;;;;;5.82;3.58;;;13.10;99.90;;;;;;5008586;28;20161;-61
2022/07/03 02:44:30;;;;;;;8.30;3.70;;;13.00;99.90;;;;;;5006816;28;20114;-61
2022/07/03 02:47:02;;;;;;;8.57;4.25;;;13.00;99.90;;;;;;5008460;28;20026;-61
2022/07/03 02:49:36;;;;;;;6.95;3.92;;;13.00;99.90;;;;;;5007730;28;20037;-62
2022/07/03 02:52:08;;;;;;;6.43;3.83;;;13.00;99.90;;;;;;5008259;28;20061;-61
2022/07/03 02:54:43;;;;;;;8.35;3.90;;;13.10;99.90;;;;;;5006436;28;20081;-61
2022/07/03 02:57:09;;;;;;;6.47;3.95;;;13.00;99.90;;;;;;5007231;28;20038;-61
2022/07/03 02:59:43;;;;;;;6.75;3.65;;;13.00;99.90;;;;;;5008596;28;20029;-61
2022/07/03 03:02:12;;;;;;;5.05;3.35;;;12.90;99.90;;;;;;5008107;28;20038;-61
2022/07/03 03:04:43;;;;;;;8.73;3.15;;;12.90;99.90;;;;;;5008437;28;20474;-61
2022/07/03 03:07:15;;;;;;;5.82;3.40;;;12.90;99.90;;;;;;5008296;28;20129;-62
2022/07/03 03:09:45;;;;;;;5.22;3.42;;;12.90;99.90;;;;;;5005320;28;20096;-61
2022/07/03 03:12:12;;;;;;;5.28;3.28;;;12.80;99.90;;;;;;5007691;28;20049;-61
2022/07/03 03:14:40;;;;;;;7.28;3.42;;;12.80;99.90;;;;;;5009369;28;20034;-61
2022/07/03 03:17:07;;;;;;;6.35;3.88;;;12.90;99.90;;;;;;5011145;28;20097;-62
2022/07/03 03:19:40;;;;;;;6.20;3.60;;;12.90;99.90;;;;;;5010367;28;20122;-62
2022/07/03 03:22:21;;;;;;;5.50;3.80;;;12.90;99.90;;;;;;5011953;28;20042;-61
2022/07/03 03:24:47;;;;;;;;;;;12.90;99.90;;;;;;5012142;28;20056;-62
2022/07/03 03:27:13;;;;;;;6.88;3.25;;;12.80;99.90;;;;;;5010758;28;20004;-61
2022/07/03 03:29:40;;;;;;;5.93;3.72;;;12.80;99.90;;;;;;5010920;28;20112;-61
2022/07/03 03:32:06;;;;;;;6.70;3.80;;;12.80;99.90;;;;;;5012295;28;20030;-61
2022/07/03 03:34:32;;;;;;;6.22;3.45;;;12.80;99.90;;;;;;5009765;28;20119;-61
2022/07/03 03:36:59;;;;;;;4.20;2.83;;;12.80;99.90;;;;;;5012107;28;20061;-62
2022/07/03 03:39:24;;;;;;;5.75;3.70;;;12.70;99.90;;;;;;5010659;28;20034;-61
2022/07/03 03:41:52;;;;;;;6.88;3.53;;;12.70;99.90;;;;;;5011412;28;20037;-62
2022/07/03 03:44:17;;;;;;;6.60;3.45;;;12.70;99.90;;;;;;5010799;28;20038;-61
2022/07/03 03:46:43;;;;;;;7.88;3.85;;;12.80;99.90;;;;;;5010766;28;20866;-61
2022/07/03 03:49:09;;;;;;;6.50;3.35;;;12.80;99.90;;;;;;5010695;28;20120;-61
2022/07/03 03:51:34;;;;;;;8.68;3.40;;;12.90;99.90;;;;;;5012004;28;20057;-62
2022/07/03 03:54:03;;;;;;;5.43;3.42;;;12.80;99.90;;;;;;5021120;28;20049;-62
2022/07/03 03:56:29;;;;;;;6.68;3.67;;;12.80;99.90;;;;;;5010103;28;20046;-61
2022/07/03 03:58:54;;;;;;;6.22;3.80;;;12.80;99.90;;;;;;5011035;28;20036;-61
2022/07/03 04:01:20;;;;;;;6.05;3.50;;;12.80;99.90;;;;;;5011241;28;20030;-61
2022/07/03 04:03:45;;;;;;;5.70;3.50;;;12.70;99.90;;;;;;5011036;28;20076;-61
2022/07/03 04:06:11;;;;;;;7.10;3.35;;;12.90;99.90;;;;;;5011982;28;20034;-61
2022/07/03 04:08:37;;;;;;;7.47;3.65;;;12.90;99.90;;;;;;5009931;28;20494;-61
2022/07/03 04:11:03;;;;;;;7.28;3.65;;;13.10;99.90;;;;;;5010669;28;20116;-61
2022/07/03 04:13:28;;;;;;;9.45;3.75;;;13.20;99.90;;;;;;5009911;28;20034;-61
2022/07/03 04:15:54;;;;;;;5.90;3.50;;;13.40;99.90;;;;;;5010335;28;20096;-62
2022/07/03 04:18:20;;;;;;;6.00;3.45;;;13.50;99.90;;;;;;5009253;28;20132;-60
2022/07/03 04:20:46;;;;;;;4.40;3.22;;;13.60;99.90;;;;;;4991740;28;20027;-62
2022/07/03 04:23:12;;;;;;;5.70;3.13;;;13.50;99.90;;;;;;4997262;28;20797;-61
2022/07/03 04:25:38;;;;;;;10.55;3.65;;;13.50;99.90;;;;;;5007307;28;20201;-61
2022/07/03 04:28:04;;;;;;;6.72;3.42;;;13.50;99.90;;;;;;5010402;28;20032;-62
2022/07/03 04:30:29;;;;;;;4.05;3.05;;;13.60;99.90;;;;;;5009622;28;20022;-61
2022/07/03 04:32:55;;;;;;;5.57;3.03;;;13.60;99.90;;;;;;5009871;28;20056;-61
2022/07/03 04:35:21;;;;;;;6.45;3.25;;;13.80;99.90;;;;;;5009163;28;20041;-61
2022/07/03 04:37:46;;;;;;;4.82;2.80;;;13.90;99.90;;;;;;5009973;28;20030;-61
2022/07/03 04:40:13;;;;;;;5.30;3.28;;;14.10;99.90;;;;;;5006685;28;20493;-61
2022/07/03 04:42:39;;;;;;;7.65;3.35;;;14.30;99.90;;;;;;5008864;28;20038;-61
2022/07/03 04:45:05;;;;;;;6.20;3.00;;;14.40;99.90;;;;;;5008712;28;20042;-61
2022/07/03 04:47:31;;;;;;;7.78;3.50;;;14.60;99.90;;;;;;5006220;28;20026;-61
2022/07/03 04:49:57;;;;;;;5.30;3.60;;;14.70;99.90;;;;;;5010031;28;20453;-62
2022/07/03 04:52:22;;;;;;;4.07;2.83;;;14.90;99.90;;;;;;5005809;28;20034;-61
2022/07/03 04:54:48;;;;;;;4.63;2.78;;;15.10;99.90;;;;;;5009667;28;20776;-61
2022/07/03 04:57:14;;;;;;;7.15;3.17;;;15.20;99.90;;;;;;5009992;28;20501;-61
2022/07/03 04:59:40;;;;;;;6.85;3.20;;;15.10;99.90;;;;;;5010248;28;20022;-61
2022/07/03 05:02:05;;;;;;;6.47;3.38;;;15.00;99.90;;;;;;5009714;28;20037;-61
2022/07/03 05:04:31;;;;;;;4.47;3.17;;;15.20;99.90;;;;;;5009669;28;20399;-61
2022/07/03 05:06:57;;;;;;;6.32;3.20;;;15.50;99.90;;;;;;5007610;28;20029;-61
2022/07/03 05:09:23;;;;;;;5.95;3.42;;;15.60;99.90;;;;;;5005243;28;20021;-61
2022/07/03 05:11:48;;;;;;;5.88;2.92;;;15.70;99.90;;;;;;5008082;28;20034;-61
2022/07/03 05:14:14;;;;;;;4.80;3.30;;;15.80;99.90;;;;;;5010506;28;20037;-62
2022/07/03 05:16:40;;;;;;;7.75;3.00;;;15.90;99.90;;;;;;5008420;28;20921;-61
2022/07/03 05:19:06;;;;;;;4.63;3.03;;;16.00;99.90;;;;;;5009620;28;20038;-61
2022/07/03 05:21:32;;;;;;;6.85;3.50;;;16.10;99.90;;;;;;5007627;28;20075;-61
2022/07/03 05:23:58;;;;;;;3.45;2.85;;;16.10;99.90;;;;;;5008649;28;20092;-61
2022/07/03 05:26:23;;;;;;;10.80;3.53;;;16.20;99.90;;;;;;5005068;28;20042;-61
2022/07/03 05:28:50;;;;;;;5.20;3.20;;;16.30;99.90;;;;;;5019129;28;20064;-61
2022/07/03 05:31:16;;;;;;;4.75;3.05;;;16.50;99.90;;;;;;5017779;28;20034;-61
2022/07/03 05:33:41;;;;;;;6.05;3.40;;;16.80;99.90;;;;;;5011802;28;20639;-61
2022/07/03 05:36:07;;;;;;;5.22;3.30;;;17.00;99.90;;;;;;5025975;28;20045;-62
2022/07/03 05:41:18;;;;;;;4.90;3.53;;;17.30;99.90;;;;;;5000934;28;20092;-61
2022/07/03 05:43:44;;;;;;;12.55;3.78;;;17.50;99.90;;;;;;5017864;28;20593;-62
2022/07/03 05:46:09;;;;;;;5.60;3.05;;;17.70;99.90;;;;;;5014902;28;20040;-61
2022/07/03 05:48:35;;;;;;;4.68;3.10;;;17.90;99.90;;;;;;5011644;28;20029;-61
2022/07/03 05:51:01;;;;;;;6.05;3.38;;;18.10;99.90;;;;;;5011829;28;20030;-61
2022/07/03 05:53:27;;;;;;;4.70;3.13;;;18.10;99.90;;;;;;5004102;28;20038;-61
2022/07/03 05:55:53;;;;;;;7.38;3.45;;;18.30;99.90;;;;;;5012332;28;20092;-61
2022/07/03 05:58:19;;;;;;;4.45;2.90;;;18.40;99.90;;;;;;5008030;28;20068;-62
2022/07/03 06:00:44;;;;;;;3.45;2.80;;;18.60;99.90;;;;;;5012097;28;20037;-61
2022/07/03 06:03:10;;;;;;;5.05;2.90;;;18.80;99.90;;;;;;5029621;28;20064;-62
2022/07/03 06:05:36;;;;;;;4.07;2.63;;;19.10;99.90;;;;;;5020326;28;20478;-61
2022/07/03 06:08:02;;;;;;;6.63;3.20;;;19.40;99.90;;;;;;5008014;28;20061;-62
2022/07/03 06:10:29;;;;;;;4.72;2.90;;;19.60;99.90;;;;;;5008282;28;20033;-61
2022/07/03 06:12:55;;;;;;;4.60;3.72;;;19.80;99.90;;;;;;5018126;28;20034;-62
2022/07/03 06:15:21;;;;;;;4.80;2.95;;;19.90;99.90;;;;;;5023852;28;20037;-62
2022/07/03 06:17:47;;;;;;;4.47;2.70;;;19.90;99.90;;;;;;5021335;28;20103;-61
2022/07/03 06:20:13;;;;;;;8.80;3.17;;;20.10;99.90;;;;;;5026368;28;20068;-62
2022/07/03 06:22:39;;;;;;;5.57;2.90;;;20.30;99.90;;;;;;5027214;28;20033;-62
2022/07/03 06:25:06;;;;;;;3.70;2.90;;;20.50;99.90;;;;;;5008941;28;20485;-62
2022/07/03 06:27:32;;;;;;;3.83;2.70;;;20.60;99.90;;;;;;5028785;28;20041;-61
2022/07/03 06:29:57;;;;;;;7.90;2.78;;;20.60;99.90;;;;;;5026134;28;20029;-62
2022/07/03 06:32:23;;;;;;;3.95;2.67;;;20.70;99.90;;;;;;5026881;28;20029;-62
2022/07/03 06:34:49;;;;;;;3.53;2.50;;;20.90;99.90;;;;;;5025590;28;20441;-62
2022/07/03 06:37:15;;;;;;;4.10;2.45;;;20.90;99.90;;;;;;5026179;28;20029;-62
2022/07/03 06:39:40;;;;;;;3.05;2.40;;;21.00;99.90;;;;;;5008041;28;20104;-61
2022/07/03 06:42:06;;;;;;;3.90;2.67;;;21.10;99.90;;;;;;5017015;28;20036;-62
2022/07/03 06:44:33;;;;;;;3.28;2.33;;;21.20;99.90;;;;;;5025061;28;20545;-61
2022/07/03 06:47:02;;;;;;;4.97;2.38;;;21.30;99.90;;;;;;5025650;28;20034;-61
2022/07/03 06:49:29;;;;;;;3.40;2.67;;;21.40;99.90;;;;;;5030317;28;20082;-62
2022/07/03 06:51:55;;;;;;;4.15;2.45;;;21.40;99.90;;;;;;5024380;28;20367;-62
2022/07/03 06:54:20;;;;;;;2.85;2.40;;;21.40;99.90;;;;;;5013358;28;20054;-62
2022/07/03 06:56:46;;;;;;;8.20;2.42;;;21.50;99.90;;;;;;5023939;28;20042;-62
2022/07/03 06:59:12;;;;;;;4.65;2.53;;;21.60;99.90;;;;;;5028413;28;20657;-62
2022/07/03 07:01:37;;;;;;;3.17;2.65;;;21.60;99.90;;;;;;5027291;28;20037;-62
2022/07/03 07:04:03;;;;;;;2.80;2.30;;;21.80;99.90;;;;;;5030393;28;20021;-62
2022/07/03 07:06:29;;;;;;;5.47;2.75;;;21.90;99.90;;;;;;5015937;28;20095;-62
2022/07/03 07:08:55;;;;;;;4.20;2.65;;;21.90;99.90;;;;;;5008555;28;20032;-62
2022/07/03 07:11:20;;;;;;;6.55;2.38;;;21.90;99.90;;;;;;5018251;28;20034;-61
2022/07/03 07:13:46;;;;;;;3.20;2.53;;;21.90;99.90;;;;;;5012851;28;20037;-61
2022/07/03 07:16:12;;;;;;;8.75;2.63;;;22.10;99.90;;;;;;5011532;28;20060;-62
2022/07/03 07:18:42;;;;;;;5.15;2.70;;;22.20;99.90;;;;;;5010466;28;20522;-62
2022/07/03 07:21:08;;;;;;;7.82;2.47;;;22.30;99.90;;;;;;5010801;28;20174;-63
2022/07/03 07:23:34;;;;;;;6.40;2.70;;;22.30;99.90;;;;;;5010582;28;20570;-63
2022/07/03 07:26:00;;;;;;;4.30;2.70;;;22.30;99.90;;;;;;5019160;28;20037;-62
2022/07/03 07:28:25;;;;;;;2.83;2.25;;;22.40;99.90;;;;;;5028877;28;20374;-62
2022/07/03 07:30:55;;;;;;;4.47;2.58;;;22.40;99.90;;;;;;5010588;28;20638;-62
2022/07/03 07:33:20;;;;;;;4.70;2.88;;;22.40;99.90;;;;;;5007880;28;20038;-61
2022/07/03 07:35:46;;;;;;;6.50;2.50;;;22.50;99.90;;;;;;5011316;28;20103;-62
2022/07/03 07:38:12;;;;;;;4.18;2.05;;;22.60;99.90;;;;;;5010280;28;20061;-62
2022/07/03 07:40:38;;;;;;;4.07;2.15;;;22.70;99.90;;;;;;5017940;28;20084;-61
2022/07/03 07:43:04;;;;;;;2.97;2.15;;;22.80;99.90;;;;;;5023353;28;20466;-61
2022/07/03 07:45:29;;;;;;;13.10;2.75;;;22.80;99.90;;;;;;5019908;28;20047;-62
2022/07/03 07:47:55;;;;;;;2.60;2.22;;;22.90;99.90;;;;;;5015700;28;20045;-62
2022/07/03 07:50:21;;;;;;;3.30;2.35;;;23.00;99.90;;;;;;5019303;28;20029;-62
2022/07/03 07:52:46;;;;;;;2.85;2.35;;;23.10;99.90;;;;;;5019458;28;20034;-61
2022/07/03 07:55:12;;;;;;;3.95;2.22;;;23.20;99.90;;;;;;5010006;28;20510;-61
2022/07/03 07:57:39;;;;;;;3.15;2.45;;;23.30;99.90;;;;;;5012293;28;20084;-62
2022/07/03 08:00:16;;;;;;;5.28;2.50;;;23.40;99.90;;;;;;5017744;28;20033;-62
2022/07/03 08:05:36;;;;;;;6.15;2.30;;;23.60;99.90;;;;;;5010231;28;20125;-62
2022/07/03 08:08:04;;;;;;;2.97;2.38;;;23.60;99.90;;;;;;5010590;28;20045;-62
2022/07/03 08:10:38;;;;;;;6.45;2.55;;;23.70;99.90;;;;;;5009862;28;20040;-62
2022/07/03 08:13:04;;;;;;;2.83;2.20;;;23.80;99.90;;;;;;5026889;28;20025;-61
2022/07/03 08:15:29;;;;;;;4.85;2.08;;;23.80;99.90;;;;;;5021796;28;20064;-61
2022/07/03 08:17:55;;;;;;;2.17;1.98;;;23.90;99.90;;;;;;5008540;28;20026;-63
2022/07/03 08:20:21;;;;;;;3.50;1.85;;;24.00;99.90;;;;;;5008966;28;20119;-62
2022/07/03 08:22:47;;;;;;;2.20;1.85;;;24.10;99.90;;;;;;5010769;28;20034;-63
2022/07/03 08:25:12;;;;;;;2.63;1.90;;;24.20;99.90;;;;;;5011267;28;20041;-63
2022/07/03 08:27:38;;;;;;;2.33;1.73;;;24.40;99.90;;;;;;5019535;28;20041;-62
2022/07/03 08:30:05;;;;;;;2.20;1.83;;;24.20;99.90;;;;;;5017208;28;20092;-62
2022/07/03 08:32:30;;;;;;;3.08;2.13;;;24.00;99.90;;;;;;5022173;28;20037;-62
2022/07/03 08:34:56;;;;;;;3.03;1.77;;;24.10;99.90;;;;;;5009689;28;20033;-61
2022/07/03 08:37:22;;;;;;;1.77;1.50;;;24.20;99.90;;;;;;5024614;28;20064;-63
2022/07/03 08:39:47;;;;;;;3.25;1.60;;;24.40;99.90;;;;;;5009739;28;20038;-62
2022/07/03 08:42:15;;;;;;;7.85;1.80;;;24.40;99.90;;;;;;5018912;28;20522;-63
2022/07/03 08:44:43;;;;;;;2.88;1.90;;;24.60;99.90;;;;;;5008679;28;20091;-64
2022/07/03 08:47:11;;;;;;;4.63;1.40;;;24.60;99.90;;;;;;5009280;28;20738;-62
2022/07/03 08:49:37;;;;;;;5.93;1.75;;;24.70;99.90;;;;;;5020895;28;20052;-62
2022/07/03 08:52:07;;;;;;;2.03;1.70;;;24.70;99.90;;;;;;5010682;28;20030;-62
2022/07/03 08:54:33;;;;;;;1.98;1.67;;;24.80;99.90;;;;;;5018135;28;20123;-62
2022/07/03 08:57:01;;;;;;;2.83;1.83;;;25.10;99.90;;;;;;5009644;28;20042;-62
2022/07/03 08:59:41;;;;;;;4.75;1.45;;;25.10;99.90;;;;;;5018065;28;20105;-62
2022/07/03 09:02:06;;;;;;;3.53;1.52;;;25.10;99.90;;;;;;5006379;28;20033;-62
2022/07/03 09:04:35;;;;;;;1.83;1.60;;;25.20;99.80;;;;;;5009896;28;20030;-63
2022/07/03 09:07:01;;;;;;;2.08;1.63;;;25.30;99.90;;;;;;5025840;28;20025;-63
2022/07/03 09:09:27;;;;;;;2.03;1.38;;;25.30;99.90;;;;;;5021505;28;20073;-62
2022/07/03 09:11:53;;;;;;;2.13;1.63;;;25.20;99.60;;;;;;5022094;28;20505;-63
2022/07/03 09:14:19;;;;;;;1.75;1.48;;;25.40;99.70;;;;;;5023568;28;20041;-63
2022/07/03 09:16:45;;;;;;;2.45;1.60;;;25.50;99.90;;;;;;5027598;28;20095;-62
2022/07/03 09:19:12;;;;;;;7.32;1.40;;;25.70;98.50;;;;;;5021599;28;20049;-62
2022/07/03 09:21:42;;;;;;;1.58;1.30;;;25.90;98.40;;;;;;5029773;28;20087;-62
2022/07/03 09:24:09;;;;;;;9.77;1.60;;;25.90;94.90;;;;;;5021461;28;20644;-63
2022/07/03 09:26:36;;;;;;;2.38;1.40;;;25.90;94.90;;;;;;5013562;28;20033;-62
2022/07/03 09:29:03;;;;;;;2.47;1.50;;;25.90;94.30;;;;;;5010241;28;20045;-64
2022/07/03 09:31:30;;;;;;;2.97;1.35;;;25.80;96.60;;;;;;5030084;28;20030;-62
2022/07/03 09:33:59;;;;;;;7.63;1.40;;;26.00;94.80;;;;;;5008569;28;20550;-62
2022/07/03 09:36:38;;;;;;;1.70;1.27;;;26.10;93.00;;;;;;5004640;28;20041;-62
2022/07/03 09:39:25;;;;;;;1.42;1.20;;;26.30;93.60;;;;;;5015039;28;20049;-64
2022/07/03 09:41:51;;;;;;;5.53;1.60;;;26.20;93.40;;;;;;5004149;28;20124;-63
2022/07/03 09:44:37;;;;;;;2.05;1.83;;;26.10;93.60;;;;;;5004479;28;20168;-62
2022/07/03 09:47:17;;;;;;;1.77;1.45;;;26.20;96.00;;;;;;4997625;28;20025;-62
2022/07/03 09:50:02;;;;;;;1.27;1.17;;;26.40;93.50;;;;;;5023985;28;20390;-62
2022/07/03 09:52:43;;;;;;;3.25;1.20;;;26.50;91.80;;;;;;5010110;28;20037;-63
2022/07/03 09:55:09;;;;;;;3.20;1.15;;;26.40;93.30;;;;;;5019894;28;20532;-64
2022/07/03 09:57:38;;;;;;;1.70;1.10;;;26.40;88.70;;;;;;5009765;28;20026;-63
2022/07/03 10:00:12;;;;;;;6.38;1.20;;;26.50;90.10;;;;;;5017659;28;20088;-62
2022/07/03 10:02:56;;;;;;;1.77;1.10;;;26.60;91.50;;;;;;5016932;28;20029;-62
2022/07/03 10:05:27;;;;;;;1.45;1.20;;;26.80;85.40;;;;;;5019584;28;20104;-63
2022/07/03 10:08:02;;;;;;;1.20;1.10;;;26.90;85.60;;;;;;5013539;28;20112;-63
2022/07/03 10:10:34;;;;;;;3.58;1.10;;;26.80;85.20;;;;;;5011853;28;20040;-63
2022/07/03 10:13:00;;;;;;;1.88;1.10;;;26.60;85.30;;;;;;5008332;28;20022;-62
2022/07/03 10:15:29;;;;;;;1.92;1.13;;;26.60;86.20;;;;;;5028291;28;20044;-62
2022/07/03 10:17:57;;;;;;;2.25;1.20;;;26.60;86.20;;;;;;5023865;28;20076;-62
2022/07/03 10:20:40;;;;;;;1.23;1.13;;;26.80;84.50;;;;;;5018172;28;20512;-62
2022/07/03 10:23:06;;;;;;;2.20;1.25;;;26.90;85.70;;;;;;5006198;28;20036;-62
2022/07/03 10:25:33;;;;;;;1.40;1.23;;;27.20;82.90;;;;;;5005381;28;20581;-63
2022/07/03 10:28:00;;;;;;;1.20;1.10;;;27.20;82.70;;;;;;5008545;28;20365;-63
2022/07/03 10:30:26;;;;;;;2.78;1.20;;;27.10;77.70;;;;;;5007610;28;20108;-62
2022/07/03 10:32:54;;;;;;;3.53;1.20;;;26.80;76.60;;;;;;5007820;28;20164;-62
2022/07/03 10:35:26;;;;;;;1.63;1.27;;;26.80;87.00;;;;;;5011526;28;20470;-63
2022/07/03 10:38:11;;;;;;;4.63;1.30;;;26.90;81.60;;;;;;5007266;28;20037;-64
2022/07/03 10:46:32;;;;;;;2.03;1.00;;;27.30;78.20;;;;;;5003991;28;20029;-62
2022/07/03 10:48:59;;;;;;;2.35;1.75;;;27.60;81.20;;;;;;5006975;28;20525;-63
2022/07/03 10:51:26;;;;;;;2.63;1.20;;;27.70;72.80;;;;;;5009332;28;20025;-63
2022/07/03 10:54:24;;;;;;;2.70;1.17;;;27.70;70.60;;;;;;5005514;28;20074;-66
2022/07/03 10:57:01;;;;;;;1.73;1.33;;;27.60;72.60;;;;;;5005876;28;20960;-64
2022/07/03 10:59:42;;;;;;;4.63;1.15;;;27.40;77.70;;;;;;5009137;28;20029;-63
2022/07/03 11:02:39;;;;;;;2.67;1.20;;;27.50;77.40;;;;;;5006108;28;20030;-63
2022/07/03 11:05:20;;;;;;;1.17;1.08;;;27.60;71.20;;;;;;5006952;28;20030;-63
2022/07/03 11:07:51;;;;;;;1.58;0.98;;;27.80;77.40;;;;;;5021732;28;20057;-62
2022/07/03 11:10:16;;;;;;;3.20;1.00;;;27.90;75.10;;;;;;5013136;28;20064;-62
2022/07/03 11:13:06;;;;;;;1.52;1.20;;;27.90;71.80;;;;;;5010412;28;20065;-62
2022/07/03 11:16:04;;;;;;;1.52;1.10;;;28.10;66.80;;;;;;5002969;28;20034;-63
2022/07/03 11:18:33;;;;;;;3.88;1.35;;;28.00;69.60;;;;;;4992790;28;20029;-64
2022/07/03 11:21:18;;;;;;;2.42;1.08;;;28.00;71.60;;;;;;5007589;28;20025;-62
2022/07/03 11:24:08;;;;;;;1.35;1.05;;;27.90;72.20;;;;;;5025523;28;20041;-61
2022/07/03 11:26:33;;;;;;;1.80;0.93;;;27.80;72.50;;;;;;5009824;28;20034;-61
2022/07/03 11:28:59;;;;;;;1.83;1.10;;;28.00;72.00;;;;;;5003676;28;20034;-61
2022/07/03 11:31:25;;;;;;;1.23;1.13;;;28.40;70.70;;;;;;5006318;28;20030;-62
2022/07/03 11:33:51;;;;;;;3.75;1.20;;;28.20;63.00;;;;;;5004162;28;20083;-63
2022/07/03 11:36:16;;;;;;;1.25;0.95;;;27.90;67.30;;;;;;5009788;28;20133;-61
2022/07/03 11:38:57;;;;;;;4.53;1.13;;;27.90;64.50;;;;;;5012429;28;20045;-62
2022/07/03 11:41:25;;;;;;;1.95;0.90;;;28.10;70.50;;;;;;5010244;28;20386;-63
2022/07/03 11:43:53;;;;;;;1.65;1.30;;;28.10;64.80;;;;;;5009106;28;20029;-62
2022/07/03 11:46:38;;;;;;;4.10;1.15;;;28.10;64.00;;;;;;5008197;28;20064;-62
2022/07/03 11:49:05;;;;;;;1.42;1.10;;;28.50;68.80;;;;;;5011233;28;20057;-61
2022/07/03 11:51:31;;;;;;;1.98;1.00;;;29.00;67.90;;;;;;5012326;28;20033;-61
2022/07/03 11:53:57;;;;;;;1.98;1.00;;;29.20;64.80;;;;;;5010991;28;20045;-61
2022/07/03 11:56:23;;;;;;;1.27;0.93;;;29.20;66.00;;;;;;5011208;28;20371;-62
2022/07/03 11:58:53;;;;;;;1.58;1.10;;;29.00;60.20;;;;;;5011626;28;20154;-61
2022/07/03 12:01:27;;;;;;;3.67;1.08;;;28.60;65.30;;;;;;5019072;28;20041;-62
2022/07/03 12:04:05;;;;;;;2.30;1.10;;;28.20;63.90;;;;;;5031155;28;20420;-61
2022/07/03 12:06:49;;;;;;;1.65;0.95;;;27.90;62.10;;;;;;5031553;28;20026;-62
2022/07/03 12:09:29;;;;;;;2.20;0.90;;;28.00;64.90;;;;;;5031887;28;20029;-61
2022/07/03 12:11:55;;;;;;;;;;;28.20;64.60;;;;;;5016586;28;20528;-61
2022/07/03 12:14:45;;;;;;;1.38;1.00;;;28.50;61.10;;;;;;5011934;28;19909;-61
2022/07/03 12:17:14;;;;;;;1.90;1.10;;;28.60;63.80;;;;;;5011443;28;20061;-61
2022/07/03 12:19:54;;;;;;;1.17;1.08;;;28.50;67.10;;;;;;5011847;28;20029;-62
2022/07/03 12:22:25;;;;;;;1.77;1.00;;;28.70;63.60;;;;;;5011842;28;20026;-61
2022/07/03 12:25:12;;;;;;;1.55;1.10;;;28.70;70.00;;;;;;5010653;28;20045;-61
2022/07/03 12:27:39;;;;;;;5.30;1.13;;;28.80;65.00;;;;;;5010974;28;20026;-62
2022/07/03 12:30:07;;;;;;;2.65;1.17;;;28.70;63.40;;;;;;5010762;28;20485;-61
2022/07/03 12:32:33;;;;;;;1.73;1.30;;;28.60;64.90;;;;;;5011451;28;20061;-61
2022/07/03 12:35:00;;;;;;;2.60;1.10;;;28.80;64.10;;;;;;5010650;28;20084;-61
2022/07/03 12:37:34;;;;;;;2.00;1.10;;;28.80;67.50;;;;;;5011463;28;20018;-62
2022/07/03 12:40:00;;;;;;;4.82;1.08;;;28.80;65.00;;;;;;5010662;28;20037;-61
2022/07/03 12:42:26;;;;;;;3.50;1.10;;;29.00;67.70;;;;;;5010167;28;20108;-63
2022/07/03 12:44:59;;;;;;;1.67;1.08;;;29.00;63.60;;;;;;5010785;28;20153;-61
2022/07/03 12:47:26;;;;;;;2.47;1.10;;;29.00;63.50;;;;;;5010987;28;20100;-61
2022/07/03 12:50:10;;;;;;;1.73;1.05;;;28.80;62.70;;;;;;5010506;28;20100;-61
2022/07/03 12:52:54;;;;;;;1.55;1.30;;;28.80;62.80;;;;;;5011133;28;20049;-61
2022/07/03 12:55:27;;;;;;;6.22;1.30;;;28.80;59.20;;;;;;5010334;28;20402;-62
2022/07/03 13:01:02;;;;;;;5.90;1.33;;;28.80;61.30;;;;;;5009666;28;20108;-62
2022/07/03 13:03:49;;;;;;;1.75;1.15;;;28.50;64.50;;;;;;5010816;28;20030;-62
2022/07/03 13:06:15;;;;;;;1.98;1.10;;;28.50;60.70;;;;;;5010489;28;20121;-63
2022/07/03 13:08:54;;;;;;;4.43;1.30;;;28.70;61.00;;;;;;5010747;28;20034;-62
2022/07/03 13:11:40;;;;;;;2.03;1.40;;;28.40;60.40;;;;;;5009896;28;20505;-63
2022/07/03 13:14:13;;;;;;;5.32;1.17;;;28.40;61.00;;;;;;5010006;28;20033;-62
2022/07/03 13:16:44;;;;;;;4.38;1.30;;;28.70;63.80;;;;;;5010676;28;20033;-62